Terminal Aerodrome Forecast
Issued by NWS Wakefield, VA

Home | Current Version | Previous Version | Text Only | Print | Product List | Glossary On
Versions: 1 2 3 4 5 6 7 8 9 10 11 12 13 14 15 16 17 18 19 20 21 22 23 24 25 26 27
000
FTUS41 KAKQ 230603 RRA
TAFSBY
TAF
KSBY 230603Z 2306/2406 36005KT 6SM BR SCT025 OVC035
     FM231100 02006KT P6SM SCT020 BKN060
     FM231600 07009KT P6SM BKN020
     FM231800 07010KT P6SM BKN040
     FM240000 09006KT P6SM -SHRA OVC050
     FM240300 08006KT 4SM -SHRA OVC025=

USA.gov is the U.S. government's official web portal to all federal, state and local government web resources and services.